createdAt,value
2019-03-24T00:00:03.657Z,5.73
2019-03-24T00:02:34.778Z,5.60
2019-03-24T00:05:06.230Z,5.30
2019-03-24T00:07:37.213Z,5.40
2019-03-24T00:10:09.247Z,5.17
2019-03-24T00:12:40.337Z,5.37
2019-03-24T00:15:11.618Z,5.83
2019-03-24T00:17:42.918Z,5.33
2019-03-24T00:20:14.728Z,5.30
2019-03-24T00:22:45.772Z,5.80
2019-03-24T00:25:16.782Z,6.13
2019-03-24T00:27:47.809Z,5.67
2019-03-24T00:30:18.994Z,5.60
2019-03-24T00:32:49.988Z,5.43
2019-03-24T00:35:21.094Z,5.90
2019-03-24T00:37:52.076Z,5.17
2019-03-24T00:40:23.058Z,6.07
2019-03-24T00:42:54.175Z,5.50
2019-03-24T00:45:25.363Z,5.90
2019-03-24T00:47:56.853Z,5.53
2019-03-24T00:50:28.016Z,6.03
2019-03-24T00:52:59.986Z,5.87
2019-03-24T00:55:30.967Z,6.37
2019-03-24T00:58:02.358Z,4.97
2019-03-24T01:00:47.646Z,6.03
2019-03-24T01:03:19.496Z,6.27
2019-03-24T01:05:50.506Z,5.80
2019-03-24T01:08:21.582Z,6.47
2019-03-24T01:10:53.484Z,5.90
2019-03-24T01:13:24.557Z,5.67
2019-03-24T01:15:55.539Z,6.37
2019-03-24T01:18:26.644Z,5.90
2019-03-24T01:20:57.789Z,6.73
2019-03-24T01:23:29.980Z,6.03
2019-03-24T01:26:01.037Z,5.90
2019-03-24T01:28:33.102Z,5.50
2019-03-24T01:31:04.113Z,5.63
2019-03-24T01:33:35.239Z,5.33
2019-03-24T01:36:06.229Z,5.50
2019-03-24T01:38:38.080Z,5.53
2019-03-24T01:41:09.104Z,5.47
2019-03-24T01:43:40.129Z,6.03
2019-03-24T01:46:11.206Z,6.03
2019-03-24T01:48:42.529Z,5.90
2019-03-24T01:51:13.529Z,5.30
2019-03-24T01:53:46.373Z,5.63
2019-03-24T01:56:17.753Z,6.20
2019-03-24T01:58:49.698Z,6.17
2019-03-24T02:01:20.732Z,5.57
2019-03-24T02:03:51.785Z,6.07
2019-03-24T02:06:24.012Z,5.97
2019-03-24T02:08:55.143Z,5.53
2019-03-24T02:11:26.125Z,5.70
2019-03-24T02:13:57.271Z,5.87
2019-03-24T02:16:28.388Z,5.60
2019-03-24T02:18:59.804Z,6.30
2019-03-24T02:21:31.831Z,6.20
2019-03-24T02:24:03.233Z,5.70
2019-03-24T02:26:34.205Z,5.63
2019-03-24T02:29:05.286Z,5.80
2019-03-24T02:31:36.308Z,6.40
2019-03-24T02:34:07.607Z,5.57
2019-03-24T02:36:40.083Z,5.77
2019-03-24T02:39:11.761Z,5.53
2019-03-24T02:41:43.062Z,6.00
2019-03-24T02:44:14.124Z,5.10
2019-03-24T02:46:45.099Z,4.77
2019-03-24T02:49:16.705Z,5.37
2019-03-24T02:51:48.084Z,5.50
2019-03-24T02:54:19.099Z,5.87
2019-03-24T02:56:50.080Z,5.30
2019-03-24T02:59:21.102Z,5.60
2019-03-24T03:01:52.477Z,5.80
2019-03-24T03:04:24.011Z,5.40
2019-03-24T03:06:55.448Z,5.47
2019-03-24T03:09:26.451Z,6.57
2019-03-24T03:11:57.413Z,6.30
2019-03-24T03:14:28.453Z,5.47
2019-03-24T03:16:59.519Z,5.90
2019-03-24T03:19:30.495Z,5.60
2019-03-24T03:22:01.504Z,5.87
2019-03-24T03:24:32.911Z,6.27
2019-03-24T03:27:04.381Z,4.97
2019-03-24T03:29:35.452Z,5.13
2019-03-24T03:32:06.742Z,6.30
2019-03-24T03:34:37.792Z,5.37
2019-03-24T03:37:08.789Z,6.07
2019-03-24T03:39:39.763Z,5.33
2019-03-24T03:42:10.921Z,4.77
2019-03-24T03:44:41.908Z,5.07
2019-03-24T03:47:13.587Z,5.30
2019-03-24T03:49:44.599Z,5.70
2019-03-24T03:52:15.638Z,6.27
2019-03-24T03:54:46.993Z,5.77
2019-03-24T03:57:18.063Z,5.27
2019-03-24T03:59:49.526Z,6.00
2019-03-24T04:02:21.462Z,5.13
2019-03-24T04:04:52.438Z,6.43
2019-03-24T04:07:23.428Z,4.87
2019-03-24T04:09:55.249Z,6.23
2019-03-24T04:12:27.099Z,5.47
2019-03-24T04:14:58.362Z,5.60
2019-03-24T04:17:29.424Z,5.13
2019-03-24T04:20:00.553Z,5.63
2019-03-24T04:22:31.936Z,5.00
2019-03-24T04:25:03.073Z,5.23
2019-03-24T04:27:34.092Z,5.60
2019-03-24T04:30:05.794Z,5.50
2019-03-24T04:32:36.758Z,5.63
2019-03-24T04:35:08.323Z,5.23
2019-03-24T04:37:40.110Z,5.33
2019-03-24T04:40:11.216Z,5.50
2019-03-24T04:42:42.526Z,5.73
2019-03-24T04:45:13.805Z,5.20
2019-03-24T04:47:45.206Z,5.53
2019-03-24T04:50:16.573Z,5.60
2019-03-24T04:52:47.954Z,6.03
2019-03-24T04:55:18.962Z,5.43
2019-03-24T04:57:50.305Z,5.70
2019-03-24T05:00:29.270Z,6.57
2019-03-24T05:03:00.234Z,6.00
2019-03-24T05:05:31.215Z,6.40
2019-03-24T05:08:02.619Z,6.43
2019-03-24T05:10:33.578Z,6.13
2019-03-24T05:13:04.932Z,6.50
2019-03-24T05:15:35.931Z,6.63
2019-03-24T05:18:07.251Z,7.27
2019-03-24T05:20:38.647Z,7.63
2019-03-24T05:23:09.949Z,9.27
2019-03-24T05:25:40.971Z,9.70
2019-03-24T05:28:11.938Z,6.47
2019-03-24T05:30:43.328Z,7.23
2019-03-24T05:33:14.704Z,8.77
2019-03-24T05:35:45.680Z,7.97
2019-03-24T05:38:16.683Z,9.53
2019-03-24T05:40:48.073Z,9.67
2019-03-24T05:43:19.082Z,10.20
2019-03-24T05:45:50.060Z,10.90
2019-03-24T05:48:21.423Z,10.47
2019-03-24T05:50:52.446Z,10.37
2019-03-24T05:53:23.830Z,8.57
2019-03-24T05:55:56.194Z,9.87
2019-03-24T05:58:27.581Z,8.30
2019-03-24T06:00:58.552Z,9.47
2019-03-24T06:03:29.970Z,8.57
2019-03-24T06:06:01.044Z,9.50
2019-03-24T06:08:32.422Z,10.13
2019-03-24T06:11:03.817Z,8.67
2019-03-24T06:13:34.791Z,9.23
2019-03-24T06:16:06.167Z,9.13
2019-03-24T06:18:37.206Z,10.77
2019-03-24T06:21:08.562Z,10.50
2019-03-24T06:23:39.538Z,10.03
2019-03-24T06:26:10.538Z,12.27
2019-03-24T06:28:41.583Z,12.43
2019-03-24T06:31:12.591Z,12.37
2019-03-24T06:33:43.862Z,11.83
2019-03-24T06:36:15.166Z,12.73
2019-03-24T06:38:46.556Z,14.30
2019-03-24T06:41:18.884Z,12.73
2019-03-24T06:43:50.194Z,13.63
2019-03-24T06:46:21.235Z,12.33
2019-03-24T06:48:52.585Z,14.63
2019-03-24T06:51:26.014Z,15.20
2019-03-24T06:53:57.454Z,16.20
2019-03-24T06:56:28.434Z,18.67
2019-03-24T06:58:59.414Z,20.23
2019-03-24T07:01:30.422Z,20.17
2019-03-24T07:04:02.139Z,19.20
2019-03-24T07:06:34.825Z,19.27
2019-03-24T07:09:07.400Z,18.30
2019-03-24T07:11:38.416Z,21.30
2019-03-24T07:14:09.767Z,21.80
2019-03-24T07:16:41.623Z,22.27
2019-03-24T07:19:13.057Z,20.47
2019-03-24T07:21:44.040Z,21.03
2019-03-24T07:24:15.058Z,21.07
2019-03-24T07:26:46.115Z,24.10
2019-03-24T07:29:17.385Z,24.20
2019-03-24T07:31:48.739Z,21.50
2019-03-24T07:34:19.721Z,20.83
2019-03-24T07:36:50.695Z,20.27
2019-03-24T07:39:21.743Z,18.93
2019-03-24T07:41:52.672Z,19.80
2019-03-24T07:44:23.698Z,19.83
2019-03-24T07:46:54.972Z,19.63
2019-03-24T07:49:26.005Z,18.70
2019-03-24T07:51:56.990Z,19.53
2019-03-24T07:54:27.967Z,21.10
2019-03-24T07:56:58.970Z,20.20
2019-03-24T07:59:29.951Z,21.23
2019-03-24T08:02:00.968Z,20.63
2019-03-24T08:04:31.964Z,22.30
2019-03-24T08:07:03.250Z,21.63
2019-03-24T08:09:37.187Z,20.20
2019-03-24T08:12:08.038Z,20.33
2019-03-24T08:14:39.054Z,19.07
2019-03-24T08:17:10.133Z,20.10
2019-03-24T08:19:41.214Z,22.10
2019-03-24T08:22:12.482Z,20.83
2019-03-24T08:24:43.461Z,18.87
2019-03-24T08:27:14.877Z,21.27
2019-03-24T08:29:45.857Z,20.50
2019-03-24T08:32:17.314Z,20.33
2019-03-24T08:34:49.451Z,20.30
2019-03-24T08:37:20.459Z,17.67
2019-03-24T08:39:51.438Z,20.00
2019-03-24T08:42:22.458Z,19.80
2019-03-24T08:44:53.431Z,20.50
2019-03-24T08:47:24.453Z,18.43
2019-03-24T08:49:55.855Z,18.47
2019-03-24T08:52:27.182Z,16.90
2019-03-24T08:54:59.820Z,19.07
2019-03-24T08:57:32.464Z,18.27
2019-03-24T09:00:04.172Z,18.47
2019-03-24T09:02:35.267Z,18.30
2019-03-24T09:05:06.323Z,19.03
2019-03-24T09:07:37.686Z,19.60
2019-03-24T09:10:08.987Z,18.00
2019-03-24T09:12:40.171Z,18.27
2019-03-24T09:15:11.223Z,17.60
2019-03-24T09:17:43.243Z,17.10
2019-03-24T09:20:15.181Z,17.40
2019-03-24T09:22:47.129Z,16.33
2019-03-24T09:25:18.280Z,17.13
2019-03-24T09:27:50.143Z,17.70
2019-03-24T09:30:31.827Z,18.27
2019-03-24T09:33:02.939Z,16.90
2019-03-24T09:35:33.933Z,16.73
2019-03-24T09:38:05.594Z,16.40
2019-03-24T09:40:37.226Z,16.57
2019-03-24T09:43:08.326Z,15.97
2019-03-24T09:45:39.372Z,16.97
2019-03-24T09:48:10.370Z,17.10
2019-03-24T09:50:41.394Z,17.40
2019-03-24T09:53:12.533Z,16.47
2019-03-24T09:55:43.874Z,16.87
2019-03-24T09:58:15.577Z,15.47
2019-03-24T10:00:46.601Z,16.20
2019-03-24T10:03:17.609Z,16.40
2019-03-24T10:05:48.686Z,18.83
2019-03-24T10:08:20.093Z,16.23
2019-03-24T10:10:51.083Z,16.43
2019-03-24T10:13:22.056Z,16.63
2019-03-24T10:15:53.910Z,15.77
2019-03-24T10:18:27.179Z,15.80
2019-03-24T10:20:59.413Z,16.40
2019-03-24T10:23:30.725Z,16.07
2019-03-24T10:26:02.024Z,16.33
2019-03-24T10:28:34.446Z,16.40
2019-03-24T10:31:05.543Z,15.83
2019-03-24T10:33:38.574Z,15.47
2019-03-24T10:36:10.266Z,15.10
2019-03-24T10:38:42.902Z,14.20
2019-03-24T10:41:14.413Z,13.53
2019-03-24T10:43:45.401Z,14.30
2019-03-24T10:46:17.120Z,14.73
2019-03-24T10:48:48.587Z,14.27
2019-03-24T10:51:20.307Z,15.23
2019-03-24T10:53:51.656Z,13.77
2019-03-24T10:56:23.014Z,13.43
2019-03-24T10:58:54.486Z,12.30
2019-03-24T11:01:25.627Z,12.80
2019-03-24T11:03:57.136Z,12.30
2019-03-24T11:06:28.416Z,11.47
2019-03-24T11:08:59.862Z,12.87
2019-03-24T11:11:30.934Z,12.53
2019-03-24T11:14:02.033Z,13.97
2019-03-24T11:16:34.039Z,13.23
2019-03-24T11:19:05.134Z,14.00
2019-03-24T11:21:36.148Z,12.30
2019-03-24T11:24:07.312Z,13.97
2019-03-24T11:26:38.344Z,12.80
2019-03-24T11:29:09.397Z,13.53
2019-03-24T11:31:41.199Z,11.73
2019-03-24T11:34:12.186Z,12.77
2019-03-24T11:36:43.163Z,12.40
2019-03-24T11:39:14.571Z,12.90
2019-03-24T11:41:46.037Z,10.33
2019-03-24T11:44:17.135Z,10.40
2019-03-24T11:46:48.284Z,10.57
2019-03-24T11:49:20.817Z,11.20
2019-03-24T11:51:52.212Z,11.30
2019-03-24T11:54:25.886Z,11.63
2019-03-24T11:56:56.866Z,10.20
2019-03-24T11:59:27.858Z,12.23
2019-03-24T12:01:59.258Z,11.73
2019-03-24T12:04:30.599Z,11.77
2019-03-24T12:07:01.594Z,12.33
2019-03-24T12:09:32.941Z,13.27
2019-03-24T12:12:03.927Z,13.23
2019-03-24T12:14:34.916Z,12.83
2019-03-24T12:17:06.496Z,14.03
2019-03-24T12:19:37.488Z,13.77
2019-03-24T12:22:08.484Z,14.13
2019-03-24T12:24:39.516Z,12.30
2019-03-24T12:27:10.921Z,13.57
2019-03-24T12:29:41.919Z,14.77
2019-03-24T12:32:15.470Z,14.53
2019-03-24T12:34:46.097Z,14.93
2019-03-24T12:37:17.091Z,15.73
2019-03-24T12:39:48.492Z,15.23
2019-03-24T12:42:19.838Z,15.13
2019-03-24T12:44:50.872Z,15.03
2019-03-24T12:47:22.355Z,15.33
2019-03-24T12:49:53.995Z,13.77
2019-03-24T12:52:25.064Z,15.03
2019-03-24T12:54:56.062Z,14.63
2019-03-24T12:57:27.447Z,14.20
2019-03-24T12:59:59.171Z,14.33
2019-03-24T13:02:30.850Z,14.83
2019-03-24T13:05:01.870Z,13.17
2019-03-24T13:07:33.678Z,12.43
2019-03-24T13:10:04.959Z,11.20
2019-03-24T13:12:36.251Z,13.77
2019-03-24T13:15:07.659Z,11.07
2019-03-24T13:17:38.960Z,10.73
2019-03-24T13:20:19.942Z,10.43
2019-03-24T13:22:43.089Z,12.03
2019-03-24T13:25:14.095Z,10.37
2019-03-24T13:27:45.347Z,9.60
2019-03-24T13:30:17.447Z,11.50
2019-03-24T13:32:48.451Z,11.67
2019-03-24T13:35:19.842Z,11.67
2019-03-24T13:37:51.801Z,10.60
2019-03-24T13:40:22.788Z,10.57
2019-03-24T13:42:53.767Z,10.07
2019-03-24T13:45:24.798Z,10.23
2019-03-24T13:47:55.790Z,9.60
2019-03-24T13:50:31.661Z,8.47
2019-03-24T13:52:59.888Z,10.33
2019-03-24T13:55:31.365Z,9.43
2019-03-24T13:58:03.047Z,8.57
2019-03-24T14:00:34.113Z,8.80
2019-03-24T14:03:05.418Z,7.47
2019-03-24T14:05:36.396Z,6.50
2019-03-24T14:08:07.478Z,7.27
2019-03-24T14:10:39.198Z,6.67
2019-03-24T14:13:10.478Z,6.00
2019-03-24T14:15:41.523Z,5.97
2019-03-24T14:18:12.514Z,5.77
2019-03-24T14:20:44.161Z,5.57
2019-03-24T14:23:15.938Z,7.93
2019-03-24T14:25:46.921Z,6.03
2019-03-24T14:28:18.310Z,5.20
2019-03-24T14:30:50.291Z,5.23
2019-03-24T14:33:21.629Z,6.47
2019-03-24T14:35:52.979Z,7.47
2019-03-24T14:38:24.022Z,8.00
2019-03-24T14:40:55.014Z,14.33
2019-03-24T14:43:26.314Z,10.27
2019-03-24T14:45:58.416Z,9.40
2019-03-24T14:48:29.407Z,10.13
2019-03-24T14:51:00.404Z,9.60
2019-03-24T14:53:31.721Z,10.93
2019-03-24T14:56:02.721Z,11.73
2019-03-24T14:58:33.751Z,11.65
2019-03-24T15:01:05.269Z,10.97
2019-03-24T15:03:36.260Z,11.07
2019-03-24T15:06:07.359Z,10.23
2019-03-24T15:08:38.404Z,9.57
2019-03-24T15:11:09.737Z,9.13
2019-03-24T15:13:40.718Z,9.00
2019-03-24T15:16:12.137Z,8.70
2019-03-24T15:18:43.126Z,8.60
2019-03-24T15:21:14.734Z,6.53
2019-03-24T15:23:46.887Z,7.07
2019-03-24T15:26:17.862Z,6.87
2019-03-24T15:28:49.297Z,6.07
2019-03-24T15:31:20.342Z,5.60
2019-03-24T15:33:51.718Z,5.50
2019-03-24T15:36:22.699Z,4.60
2019-03-24T15:38:53.730Z,5.80
2019-03-24T15:41:24.735Z,4.70
2019-03-24T15:43:56.225Z,4.40
2019-03-24T15:46:27.624Z,3.87
2019-03-24T15:48:58.609Z,4.20
2019-03-24T15:51:29.584Z,3.83
2019-03-24T15:54:02.382Z,3.43
2019-03-24T15:56:33.354Z,2.73
2019-03-24T15:59:04.701Z,2.80
2019-03-24T16:01:35.733Z,2.57
2019-03-24T16:04:06.729Z,1.90
2019-03-24T16:06:39.969Z,1.80
2019-03-24T16:09:11.045Z,2.30
2019-03-24T16:11:42.020Z,1.70
2019-03-24T16:14:13.178Z,2.07
2019-03-24T16:16:44.901Z,2.30
2019-03-24T16:19:15.870Z,2.90
2019-03-24T16:21:46.841Z,4.00
2019-03-24T16:24:17.887Z,10.50
2019-03-24T16:26:48.892Z,5.97
2019-03-24T16:29:20.268Z,4.00
2019-03-24T16:31:51.634Z,4.50
2019-03-24T16:34:23.018Z,5.53
2019-03-24T16:36:54.002Z,3.17
2019-03-24T16:39:25.031Z,2.70
2019-03-24T16:41:56.004Z,2.13
2019-03-24T16:44:27.778Z,1.80
2019-03-24T16:46:59.119Z,1.90
2019-03-24T16:49:30.471Z,1.73
2019-03-24T16:52:01.455Z,1.77
2019-03-24T16:54:32.473Z,1.80
2019-03-24T16:57:03.469Z,1.80
2019-03-24T16:59:34.426Z,2.33
2019-03-24T17:02:05.459Z,2.63
2019-03-24T17:04:37.800Z,2.73
2019-03-24T17:07:08.813Z,2.93
2019-03-24T17:09:40.269Z,2.63
2019-03-24T17:12:12.219Z,2.60
2019-03-24T17:14:43.213Z,2.90
2019-03-24T17:17:14.556Z,2.90
2019-03-24T17:19:45.860Z,3.10
2019-03-24T17:22:17.520Z,3.00
2019-03-24T17:24:48.824Z,2.90
2019-03-24T17:27:19.792Z,3.10
2019-03-24T17:29:50.785Z,2.90
2019-03-24T17:32:21.834Z,2.50
2019-03-24T17:34:57.587Z,2.90
2019-03-24T17:37:30.035Z,3.07
2019-03-24T17:40:01.778Z,3.13
2019-03-24T17:42:32.776Z,3.33
2019-03-24T17:45:04.576Z,3.43
2019-03-24T17:47:35.903Z,3.03
2019-03-24T17:50:09.171Z,3.40
2019-03-24T17:52:40.559Z,3.20
2019-03-24T17:55:13.274Z,3.20
2019-03-24T17:57:45.032Z,3.10
2019-03-24T18:00:18.275Z,4.40
2019-03-24T18:02:49.266Z,3.87
2019-03-24T18:05:20.811Z,5.80
2019-03-24T18:07:52.172Z,3.90
2019-03-24T18:10:23.531Z,3.67
2019-03-24T18:12:55.180Z,3.47
2019-03-24T18:15:29.244Z,2.77
2019-03-24T18:18:00.657Z,3.53
2019-03-24T18:20:33.223Z,2.67
2019-03-24T18:23:05.804Z,3.27
2019-03-24T18:25:38.169Z,3.00
2019-03-24T18:28:09.332Z,3.13
2019-03-24T18:30:40.612Z,3.10
2019-03-24T18:33:11.943Z,3.00
2019-03-24T18:35:43.784Z,2.70
2019-03-24T18:38:15.188Z,3.10
2019-03-24T18:40:48.722Z,3.00
2019-03-24T18:43:19.679Z,3.13
2019-03-24T18:45:52.300Z,3.20
2019-03-24T18:48:23.304Z,3.13
2019-03-24T18:50:55.011Z,3.30
2019-03-24T18:53:26.360Z,3.03
2019-03-24T18:55:58.175Z,2.73
2019-03-24T18:58:29.160Z,3.33
2019-03-24T19:01:00.464Z,3.47
2019-03-24T19:03:31.432Z,3.03
2019-03-24T19:06:04.699Z,3.40
2019-03-24T19:08:38.404Z,3.40
2019-03-24T19:11:10.884Z,3.37
2019-03-24T19:13:45.304Z,3.67
2019-03-24T19:16:21.841Z,4.10
2019-03-24T19:18:54.135Z,3.07
2019-03-24T19:21:25.144Z,3.93
2019-03-24T19:23:56.148Z,4.60
2019-03-24T19:26:27.105Z,4.27
2019-03-24T19:28:58.117Z,4.10
2019-03-24T19:31:29.568Z,3.93
2019-03-24T19:34:00.536Z,4.17
2019-03-24T19:36:34.640Z,4.27
2019-03-24T19:39:10.213Z,3.80
2019-03-24T19:41:41.726Z,4.77
2019-03-24T19:44:12.726Z,4.20
2019-03-24T19:46:44.176Z,4.20
2019-03-24T19:49:21.588Z,4.07
2019-03-24T19:51:54.912Z,4.00
2019-03-24T19:54:25.928Z,5.60
2019-03-24T19:56:56.909Z,6.30
2019-03-24T19:59:31.033Z,6.23
2019-03-24T20:02:04.462Z,7.57
2019-03-24T20:04:37.290Z,6.23
2019-03-24T20:07:10.685Z,5.30
2019-03-24T20:09:42.480Z,5.23
2019-03-24T20:12:15.860Z,5.47
2019-03-24T20:14:46.475Z,4.50
2019-03-24T20:17:17.883Z,6.00
2019-03-24T20:19:49.283Z,5.53
2019-03-24T20:22:20.619Z,6.47
2019-03-24T20:24:51.653Z,5.17
2019-03-24T20:27:25.799Z,5.67
2019-03-24T20:29:58.000Z,5.03
2019-03-24T20:32:29.493Z,4.23
2019-03-24T20:35:00.493Z,9.70
2019-03-24T20:37:35.042Z,6.83
2019-03-24T20:40:06.782Z,5.07
2019-03-24T20:42:38.124Z,4.97
2019-03-24T20:45:09.980Z,5.03
2019-03-24T20:47:42.072Z,4.30
2019-03-24T20:50:14.111Z,9.17
2019-03-24T20:52:45.146Z,9.23
2019-03-24T20:55:16.481Z,15.67
2019-03-24T20:57:48.351Z,34.53
2019-03-24T21:00:30.146Z,10.07
2019-03-24T21:03:02.183Z,6.70
2019-03-24T21:05:33.764Z,4.33
2019-03-24T21:08:05.307Z,4.07
2019-03-24T21:10:36.817Z,3.80
2019-03-24T21:13:08.532Z,4.47
2019-03-24T21:15:40.232Z,4.13
2019-03-24T21:18:12.197Z,4.60
2019-03-24T21:20:43.536Z,3.73
2019-03-24T21:23:14.577Z,4.10
2019-03-24T21:25:46.397Z,3.40
2019-03-24T21:28:18.062Z,3.60
2019-03-24T21:30:50.029Z,3.40
2019-03-24T21:33:21.298Z,3.50
2019-03-24T21:35:52.279Z,3.43
2019-03-24T21:38:23.703Z,3.70
2019-03-24T21:40:55.082Z,3.10
2019-03-24T21:43:26.880Z,3.33
2019-03-24T21:45:58.863Z,3.40
2019-03-24T21:48:32.455Z,3.47
2019-03-24T21:51:03.927Z,3.43
2019-03-24T21:53:40.637Z,3.33
2019-03-24T21:56:07.916Z,3.50
2019-03-24T21:58:38.909Z,3.83
2019-03-24T22:01:10.211Z,3.00
2019-03-24T22:03:41.590Z,4.30
2019-03-24T22:06:12.555Z,3.10
2019-03-24T22:08:45.300Z,3.97
2019-03-24T22:11:16.751Z,3.20
2019-03-24T22:13:47.731Z,3.30
2019-03-24T22:16:19.092Z,3.27
2019-03-24T22:18:50.516Z,3.73
2019-03-24T22:21:21.488Z,3.63
2019-03-24T22:23:53.694Z,4.37
2019-03-24T22:26:24.663Z,3.50
2019-03-24T22:28:56.004Z,3.90
2019-03-24T22:31:27.356Z,3.73
2019-03-24T22:33:58.722Z,3.70
2019-03-24T22:36:31.117Z,3.87
2019-03-24T22:39:02.437Z,3.77
2019-03-24T22:41:33.782Z,3.83
2019-03-24T22:44:04.881Z,4.30
2019-03-24T22:46:35.908Z,3.57
2019-03-24T22:49:06.874Z,3.70
2019-03-24T22:51:37.839Z,3.80
2019-03-24T22:54:09.297Z,4.10
2019-03-24T22:56:40.345Z,3.77
2019-03-24T22:59:12.113Z,4.23
2019-03-24T23:01:43.534Z,4.53
2019-03-24T23:04:14.515Z,3.73
2019-03-24T23:06:45.484Z,3.97
2019-03-24T23:09:16.516Z,4.57
2019-03-24T23:11:47.489Z,4.47
2019-03-24T23:14:18.490Z,4.27
2019-03-24T23:16:50.236Z,4.03
2019-03-24T23:19:21.209Z,3.80
2019-03-24T23:21:52.551Z,4.10
2019-03-24T23:24:23.594Z,4.23
2019-03-24T23:26:54.568Z,4.17
2019-03-24T23:29:25.866Z,4.07
2019-03-24T23:31:56.882Z,4.37
2019-03-24T23:34:28.151Z,3.70
2019-03-24T23:36:59.113Z,4.07
2019-03-24T23:39:30.146Z,3.90
2019-03-24T23:42:01.991Z,3.60
2019-03-24T23:44:33.665Z,3.30
2019-03-24T23:47:04.743Z,3.50
2019-03-24T23:49:35.741Z,3.67
2019-03-24T23:52:07.105Z,3.73
2019-03-24T23:54:38.134Z,4.03
2019-03-24T23:57:09.109Z,3.10
2019-03-24T23:59:40.067Z,3.40
